Latest Coastal Weather Observations for Adelaide Airport

IDS60701

Issued at 10:11 pm CDT Monday 23 October 2017 (issued every 10 minutes, with the page automatically refreshed every 10 minutes)

About coastal observations | Map of coastal stations | Coastal observations for SA | Marine services | Other Formats
Station Details ID: 023034 Name: ADELAIDE AIRPORT Lat: -34.95 Lon: 138.52 Height: 2.0 m
Data from the previous 72 hours. | See also: Recent months at Adelaide Airport
Date/Time
CDT
Temp
°C
Wind Pressure Rain since
9am
mm
Weather Cloud Vis
km
Sea
Height
m
Swell
Dir  Spd
kts
Gust
kts
hPa Trend Height
m
Period
s
Dir
23/10:00pm 16.5 ENE 2 5 1016.0 - 0.0 - Clear 10 - - - -
23/09:30pm 16.8 CALM 0 0 1016.0 - 0.0 - - 10 - - - -
23/09:00pm 17.0 W 5 7 1016.0 F 0.0 Fine Mostly cloudy 30 - - - -
23/08:30pm 16.9 ESE 4 6 1015.7 - 0.0 - - 10 - - - -
23/08:00pm 17.3 SW 6 8 1015.8 - 0.0 - - 10 - - - -
23/07:30pm 17.5 SW 7 8 1015.7 - 0.0 - - 10 - - - -
23/07:00pm 18.2 W 5 6 1015.3 - 0.0 - - 10 - - - -
23/06:30pm 18.0 WSW 6 6 1015.4 - 0.0 - Mostly clear 10 - - - -
23/06:00pm 18.3 WSW 8 9 1015.4 F 0.0 Fine Mostly cloudy 30 - - - -
23/05:30pm 19.5 S 4 6 1015.2 - 0.0 - Mostly clear 10 - - - -
23/05:00pm 18.4 SSW 7 9 1015.6 - 0.0 - Mostly clear 10 - - - -
23/04:30pm 18.1 SW 9 10 1015.9 - 0.0 - Mostly clear 10 - - - -
23/04:00pm 19.1 SW 11 13 1016.3 - 0.0 - Mostly clear 10 - - - -
23/03:30pm 18.3 SW 10 13 1016.6 - 0.0 - Mostly clear 10 - - - -
23/03:00pm 18.5 SW 12 14 1017.0 F 0.0 Fine Mostly cloudy 30 - - - -
23/02:30pm 18.9 SW 12 15 1017.4 - 0.0 - Mostly clear 10 - - - -
23/02:00pm 18.7 SW 10 13 1017.4 - 0.0 - Mostly clear 10 - - - -
23/01:30pm 18.2 SW 10 14 1017.7 - 0.0 - Mostly clear 10 - - - -
23/01:00pm 18.7 WSW 13 16 1018.1 - 0.0 - Mostly clear 10 - - - -
23/12:30pm 18.2 SW 9 13 1018.0 - 0.0 - Mostly clear 10 - - - -
23/12:00pm 19.0 N 8 11 1018.4 F 0.0 Fine Partly cloudy 30 - - - -
23/11:30am 19.2 N 5 9 1018.9 - 0.0 - Mostly clear 10 - - - -
23/11:00am 19.2 N 7 11 1019.3 - 0.0 - Mostly clear 10 - - - -
23/10:30am 18.1 NNE 6 10 1019.3 - 0.0 - Mostly clear 10 - - - -
23/10:00am 16.9 NE 7 10 1019.8 - 0.0 - Mostly clear 10 - - - -
23/09:30am 15.8 NNE 5 7 1020.1 - 0.0 - Mostly clear 10 - - - -
23/09:00am 14.8 NNE 7 10 1020.3 F 0.0 Fine Mostly clear 30 - - - -
23/08:30am 14.3 N 6 8 1020.4 - 0.0 - Mostly clear 10 - - - -
23/08:00am 13.0 NE 6 7 1020.0 - 0.0 - Mostly clear 10 - - - -
23/07:30am 12.0 N 7 9 1019.8 - 0.0 - Mostly clear 10 - - - -
23/07:00am 11.2 NE 3 5 1019.9 - 0.0 - Mostly clear 10 - - - -
23/06:30am 10.5 ESE 7 8 1019.4 - 0.0 - Mostly clear 10 - - - -
23/06:00am 10.0 E 7 8 1019.4 F 0.0 Fine Mostly clear 40 - - - -
23/05:30am 10.7 ESE 5 6 1019.3 - 0.0 - Mostly clear 10 - - - -
23/05:00am 11.0 SSE 6 7 1019.5 - 0.0 - Mostly clear 10 - - - -
23/04:30am 11.6 S 7 8 1019.4 - 0.0 - Mostly clear 10 - - - -
23/04:00am 12.0 SSW 6 8 1019.4 - 0.0 - Mostly clear 10 - - - -
23/03:30am 11.5 S 6 7 1019.4 - 0.0 - Mostly clear 10 - - - -
23/03:00am 12.1 S 6 7 1019.8 F 0.0 Fine Mostly clear 35 - - - -
23/02:30am 12.5 SSE 7 9 1020.2 - 0.0 - Partly cloudy 10 - - - -
23/02:00am 13.4 S 8 10 1020.6 - 0.0 - Mostly cloudy 10 - - - -
23/01:30am 13.6 S 7 9 1021.2 - 0.0 - Mostly cloudy 10 - - - -
23/01:00am 13.7 S 8 10 1021.5 - 0.0 - Mostly cloudy 10 - - - -
23/12:30am 14.1 SSE 8 10 1021.5 - 0.0 - Mostly clear 10 - - - -
23/12:00am 14.0 SSE 7 10 1021.6 F 0.0 Fine Mostly cloudy 30 - - - -
 
Date/Time
CDT
Temp
°C
Wind Pressure Rain since
9am
mm
Weather Cloud Vis
km
Sea
Height
m
Swell
Dir  Spd
kts
Gust
kts
hPa Trend Height
m
Period
s
Dir
22/11:30pm 13.7 SSE 9 12 1021.6 - 0.0 - Mostly clear 10 - - - -
22/11:00pm 13.2 S 6 8 1021.8 - 0.0 - Mostly clear 10 - - - -
22/10:30pm 13.0 SSE 6 8 1021.7 - 0.0 - Mostly clear 10 - - - -
22/10:00pm 13.2 SE 7 9 1021.8 - 0.0 - Mostly clear 10 - - - -
22/09:30pm 13.7 SSE 7 10 1021.7 - 0.0 - Mostly clear 10 - - - -
22/09:00pm 14.4 S 7 10 1021.6 F 0.0 Fine Mostly clear 30 - - - -
22/08:30pm 14.9 SSW 8 10 1021.5 - 0.0 - Partly cloudy 10 - - - -
22/08:00pm 15.1 SSW 8 13 1021.5 - 0.0 - Partly cloudy 10 - - - -
22/07:30pm 15.5 SSW 11 16 1021.4 - 0.0 - Mostly cloudy 10 - - - -
22/07:00pm 15.5 SW 15 19 1021.3 - 0.0 - Mostly cloudy 10 - - - -
22/06:30pm 16.0 SW 16 20 1020.8 - 0.0 - Mostly clear 10 - - - -
22/06:00pm 16.6 SSW 16 21 1021.1 R 0.0 Fine Mostly cloudy 30 - - - -
22/05:30pm 16.0 SW 14 19 1021.1 - 0.0 - Mostly clear 10 - - - -
22/05:00pm 16.5 SW 17 22 1020.9 - 0.0 - Mostly clear 10 - - - -
22/04:30pm 17.3 SW 16 20 1021.0 - 0.0 - Mostly clear 10 - - - -
22/04:00pm 16.1 SW 16 21 1021.1 - 0.0 - Mostly clear 10 - - - -
22/03:30pm 16.2 SW 16 19 1021.1 - 0.0 - Mostly clear 10 - - - -
22/03:00pm 17.2 SW 16 20 1021.3 F 0.0 Fine Partly cloudy 30 - - - -
22/02:30pm 17.0 SW 15 20 1021.6 - 0.0 - Mostly clear 10 - - - -
22/02:00pm 17.3 SW 15 18 1022.1 - 0.0 - Mostly clear 10 - - - -
22/01:30pm 17.6 SW 13 17 1022.4 - 0.0 - Mostly clear 10 - - - -
22/01:00pm 17.2 SW 11 16 1022.7 - 0.0 - Mostly clear 10 - - - -
22/12:30pm 16.2 SW 13 17 1022.9 - 0.0 - Mostly clear 10 - - - -
22/12:00pm 15.5 SW 13 17 1023.1 F 0.0 Distant precip. Mostly cloudy 25 - - - -
22/11:30am 15.7 SW 9 14 1023.4 - 0.0 - Mostly clear 10 - - - -
22/11:00am 15.1 SW 12 16 1023.6 - 0.0 Showers Partly cloudy 10 - - - -
22/10:30am 15.6 SW 10 14 1023.6 - 0.0 - Mostly clear 10 - - - -
22/10:00am 14.8 SW 10 14 1023.6 - 0.0 - Mostly clear 10 - - - -
22/09:30am 14.5 SW 9 13 1023.7 - 0.0 - Mostly clear 10 - - - -
22/09:00am 14.3 SSW 9 14 1023.6 F 0.0 Fine Mostly cloudy 30 - - - -
22/08:30am 14.7 SSW 9 13 1023.6 - 0.0 - Mostly clear 10 - - - -
22/08:00am 14.4 S 8 10 1023.4 - 0.0 - Mostly cloudy 10 - - - -
22/07:30am 13.8 SSW 8 12 1023.2 - 0.0 - Mostly cloudy 10 - - - -
22/07:00am 13.3 S 9 15 1023.0 - 0.0 - Mostly cloudy 10 - - - -
22/06:30am 13.0 S 7 10 1023.0 - 0.0 - Mostly clear 10 - - - -
22/06:00am 12.5 SSW 4 5 1022.9 F 0.0 Fine Mostly cloudy 25 - - - -
22/05:30am 12.2 SSW 5 5 1023.0 - 0.0 - Mostly clear 10 - - - -
22/05:00am 11.8 S 5 6 1022.9 - 0.0 - Mostly clear 10 - - - -
22/04:30am 11.7 S 7 9 1023.0 - 0.0 - Mostly clear 10 - - - -
22/04:00am 12.0 S 7 9 1023.2 - 0.0 - Mostly clear 10 - - - -
22/03:30am 11.8 S 6 8 1023.3 - 0.0 - Mostly clear 10 - - - -
22/03:00am 11.3 S 5 6 1023.7 F 0.0 Fine Mostly cloudy 25 - - - -
22/02:30am 10.9 SSW 6 8 1024.0 - 0.0 - Mostly clear 10 - - - -
22/02:00am 11.7 SSE 9 12 1024.3 - 0.0 Drizzle Mostly clear 10 - - - -
22/01:30am 12.2 SSE 6 8 1024.6 - 0.0 - Mostly clear 10 - - - -
22/01:00am 12.6 SSE 7 10 1025.1 - 0.0 - Mostly clear 10 - - - -
22/12:30am 12.7 S 8 13 1025.2 - 0.0 - Mostly clear 10 - - - -
22/12:00am 12.6 S 8 11 1025.4 F 0.0 Fine Mostly cloudy 30 - - - -
 
Date/Time
CDT
Temp
°C
Wind Pressure Rain since
9am
mm
Weather Cloud Vis
km
Sea
Height
m
Swell
Dir  Spd
kts
Gust
kts
hPa Trend Height
m
Period
s
Dir
21/11:30pm 12.6 S 6 8 1025.6 - 0.0 - Mostly clear 10 - - - -
21/11:00pm 12.6 S 8 10 1025.8 - 0.0 - Mostly clear 10 - - - -
21/10:30pm 12.6 S 11 16 1026.0 - 0.0 - Mostly clear 10 - - - -
21/10:00pm 13.1 SSE 10 14 1026.1 - 0.0 - Mostly clear 10 - - - -
21/09:30pm 13.9 SSW 10 14 1026.2 - 0.0 - Mostly cloudy 10 - - - -
21/09:00pm 13.9 S 11 15 1026.2 F 0.0 Fine Mostly cloudy 25 - - - -
21/08:30pm 14.0 SSE 11 16 1026.3 - 0.0 - Mostly cloudy 10 - - - -
21/08:00pm 14.3 S 12 17 1026.2 - 0.0 - Mostly cloudy 10 - - - -
21/07:30pm 14.3 S 14 19 1026.0 - 0.0 - Mostly cloudy 10 - - - -
21/07:00pm 14.7 S 12 16 1026.0 - 0.0 - Mostly cloudy 10 - - - -
21/06:30pm 15.1 SSW 15 20 1026.0 - 0.0 - Mostly cloudy 10 - - - -
21/06:00pm 15.6 SSW 16 21 1025.9 F 0.0 Fine Partly cloudy 30 - - - -
21/05:30pm 16.0 SW 18 26 1025.8 - 0.0 - Partly cloudy 10 - - - -
21/05:00pm 16.1 SW 19 24 1025.9 - 0.0 - Partly cloudy 10 - - - -
21/04:30pm 16.7 SW 20 26 1025.9 - 0.0 - Mostly clear 10 - - - -
21/04:00pm 16.8 SW 20 26 1026.1 - 0.0 - Mostly clear 10 - - - -
21/03:30pm 16.7 SW 19 25 1026.3 - 0.0 - Mostly clear 10 - - - -
21/03:00pm 17.0 SW 19 26 1026.6 F 0.0 Fine Partly cloudy 30 - - - -
21/02:30pm 16.8 SW 19 25 1026.9 - 0.0 - Mostly clear 10 - - - -
21/02:00pm 16.8 SW 19 25 1027.3 - 0.0 - Mostly clear 10 - - - -
21/01:30pm 17.4 SW 18 22 1027.7 - 0.0 - Mostly clear 10 - - - -
21/01:00pm 17.1 SW 18 22 1027.9 - 0.0 - Mostly clear 10 - - - -
21/12:30pm 16.7 SW 17 21 1028.2 - 0.0 - Partly cloudy 10 - - - -
21/12:00pm 16.2 S 10 16 1028.5 F 0.0 Fine Partly cloudy 30 - - - -
21/11:30am 15.9 S 8 12 1028.9 - 0.0 - Partly cloudy 10 - - - -
21/11:00am 16.5 SSE 7 12 1029.2 - 0.0 - Mostly cloudy 10 - - - -
21/10:30am 15.4 SSE 11 15 1029.6 - 0.0 - Mostly cloudy 10 - - - -
21/10:00am 16.0 S 12 18 1030.1 - 0.0 - Mostly cloudy 10 - - - -
21/09:30am 14.5 SE 9 13 1030.0 - 0.0 - Mostly cloudy 10 - - - -
21/09:00am 13.9 S 10 15 1030.1 F 0.0 Fine Mostly cloudy 25 - - - -
21/08:30am 13.4 SSE 10 14 1030.1 - 0.0 - Mostly cloudy 10 - - - -
21/08:00am 13.0 S 11 14 1029.9 - 0.0 - Mostly cloudy 10 - - - -
21/07:30am 12.7 SSE 10 14 1029.8 - 0.0 - Mostly cloudy 10 - - - -
21/07:00am 12.5 SE 10 15 1029.6 - 0.0 - Mostly cloudy 10 - - - -
21/06:30am 12.3 SSE 9 15 1029.7 - 0.0 - Mostly cloudy 10 - - - -
21/06:00am 12.1 SSE 8 13 1029.6 F 0.0 Haze Mostly cloudy 25 - - - -
21/05:30am 12.0 SSE 8 12 1029.4 - 0.0 - Mostly cloudy 10 - - - -
21/05:00am 12.0 SSE 7 10 1029.4 - 0.0 - Mostly cloudy 10 - - - -
21/04:30am 11.9 SE 7 10 1029.4 - 0.0 - Mostly cloudy 10 - - - -
21/04:00am 12.0 SSE 6 9 1029.6 - 0.0 - Mostly cloudy 10 - - - -
21/03:30am 12.0 SSE 7 10 1029.7 - 0.0 - Mostly cloudy 10 - - - -
21/03:00am 12.3 SSE 9 14 1030.0 S 0.0 Haze Mostly cloudy 25 - - - -
21/02:30am 11.8 SSE 8 10 1030.0 - 0.0 - Mostly cloudy 10 - - - -
21/02:00am 11.7 SSE 7 10 1030.2 - 0.0 - Mostly cloudy 10 - - - -
21/01:30am 11.3 SSE 7 10 1030.6 - 0.0 - Partly cloudy 10 - - - -
21/01:00am 11.1 SSE 6 8 1030.8 - 0.0 - Mostly clear 10 - - - -
21/12:30am 11.1 S 6 8 1031.1 - 0.0 - Mostly clear 10 - - - -
21/12:00am 11.1 S 6 9 1031.3 F 0.0 Haze Mostly clear 20 - - - -
 
Date/Time
CDT
Temp
°C
Wind Pressure Rain since
9am
mm
Weather Cloud Vis
km
Sea
Height
m
Swell
Dir  Spd
kts
Gust
kts
hPa Trend Height
m
Period
s
Dir
20/11:30pm 11.4 S 7 10 1031.2 - 0.0 - Mostly clear 10 - - - -
20/11:00pm 11.9 S 9 12 1031.3 - 0.0 - Mostly clear 10 - - - -
20/10:30pm 11.8 SSE 7 11 1031.4 - 0.0 - Mostly clear 10 - - - -

Other Formats:

Comma delimited format used in spreadsheet applications
http://www.bom.gov.au/fwo/IDS60701/IDS60701.94672.axf

JavaScript Object Notation format (JSON) in row-major order
http://www.bom.gov.au/fwo/IDS60701/IDS60701.94672.json